Corby, United Kingdom
Current Conditions -  °F | °C
As of 1:50 AM on Thursday 27 Nov 2014 (Local Time) from EGXT Reporting Station
Rain Showers Rain Showers  
Wind Chill: 45°   Ceiling: 100
Heat Index: 45°   Visibility: 0.09mi
Dew Point: 45°   Wind: 2mph
Humidity: 100%   Direction: 10°N
Pressure: 29.68"   Gusts: NA
Location:  52.51°N, 0.7°W
Report Text: EGXT 270150Z AUTO 01002KT 0150 -SHRA BKN001/// OVC007/// 07/07 Q1005
Loading
Personal Weather Stations






























Interactive Weather Map New forecast layout! Learn more

10-Day Weather Forecast

Advertisements
Track Severe Weather on mobile